LIPE

Bologna Guglielmo Marconi Airport

Bologna, Italy
TAF LIPE 201700Z 2018/2118 VRB05KT CAVOK
Issued Valid From Valid To
Apr-20 @ 17:00 UTC
(an hour ago)
Apr-20 @ 18:00 UTC
(29 minutes ago)
Apr-21 @ 18:00 UTC
(in 24 hours)
Apr-20 @ 18:00 to Apr-21 @ 18:00
TAF LIPE 201700Z 2018/2118 VRB05KT CAVOK
Wind Visibility Clouds Conditions
Variable at 5 knots 10,000+ meters
  • No significant clouds
TAF LIPE 201700Z 2018/2118 VRB05KT CAVOK
Issued Apr-20 @ 17:00 UTC
(an hour ago)
Valid From Apr-20 @ 18:00 UTC
(29 minutes ago)
Valid To Apr-21 @ 18:00 UTC
(in 24 hours)
Apr-20 @ 18:00 - Apr-21 @ 18:00
Wind Visibility
Variable at 5 knots 10,000+ meters
Clouds
  • No significant clouds
Conditions